createdAt,value
2017-05-07T00:01:09.379Z,12.03
2017-05-07T00:04:03.645Z,12.03
2017-05-07T00:06:57.814Z,12.04
2017-05-07T00:09:52.022Z,12.03
2017-05-07T00:15:40.370Z,11.95
2017-05-07T00:18:34.457Z,11.90
2017-05-07T00:21:28.739Z,11.86
2017-05-07T00:24:22.813Z,11.81
2017-05-07T00:27:16.951Z,11.77
2017-05-07T00:30:11.070Z,11.73
2017-05-07T00:33:05.078Z,11.69
2017-05-07T00:35:59.253Z,11.66
2017-05-07T00:38:54.289Z,11.63
2017-05-07T00:41:47.418Z,11.62
2017-05-07T00:44:41.712Z,11.61
2017-05-07T00:47:35.756Z,11.62
2017-05-07T00:50:29.966Z,11.61
2017-05-07T00:53:24.118Z,11.61
2017-05-07T00:56:18.248Z,11.61
2017-05-07T00:59:12.298Z,11.61
2017-05-07T01:02:06.383Z,11.62
2017-05-07T01:05:00.344Z,11.65
2017-05-07T01:07:54.377Z,11.67
2017-05-07T01:10:48.505Z,11.67
2017-05-07T01:13:42.636Z,11.68
2017-05-07T01:16:36.786Z,11.68
2017-05-07T01:19:30.935Z,11.71
2017-05-07T01:25:19.309Z,11.75
2017-05-07T01:28:13.448Z,11.74
2017-05-07T01:31:07.590Z,11.71
2017-05-07T01:34:01.903Z,11.71
2017-05-07T01:39:51.349Z,11.71
2017-05-07T01:42:44.454Z,11.67
2017-05-07T01:45:38.537Z,11.67
2017-05-07T01:48:32.679Z,11.68
2017-05-07T01:51:26.733Z,11.67
2017-05-07T01:54:20.884Z,11.67
2017-05-07T01:57:15.159Z,11.64
2017-05-07T02:00:09.493Z,11.61
2017-05-07T02:05:57.551Z,11.57
2017-05-07T02:11:45.888Z,11.53
2017-05-07T02:14:39.994Z,11.53
2017-05-07T02:17:34.037Z,11.53
2017-05-07T02:20:28.028Z,11.54
2017-05-07T02:23:22.073Z,11.54
2017-05-07T02:26:16.215Z,11.52
2017-05-07T02:29:10.287Z,11.51
2017-05-07T02:32:04.328Z,11.51
2017-05-07T02:34:58.425Z,11.52
2017-05-07T02:37:52.538Z,11.52
2017-05-07T02:40:46.575Z,11.52
2017-05-07T02:43:40.655Z,11.50
2017-05-07T02:49:28.762Z,11.49
2017-05-07T02:52:22.919Z,11.49
2017-05-07T02:58:11.085Z,11.44
2017-05-07T03:01:05.175Z,11.44
2017-05-07T03:03:59.261Z,11.44
2017-05-07T03:06:53.301Z,11.43
2017-05-07T03:09:47.584Z,11.43
2017-05-07T03:12:41.610Z,11.43
2017-05-07T03:15:35.848Z,11.40
2017-05-07T03:18:29.876Z,11.39
2017-05-07T03:21:23.885Z,11.38
2017-05-07T03:24:18.004Z,11.41
2017-05-07T03:27:12.094Z,11.42
2017-05-07T03:33:00.424Z,11.41
2017-05-07T03:35:54.511Z,11.41
2017-05-07T03:38:48.644Z,11.40
2017-05-07T03:41:42.707Z,11.37
2017-05-07T03:44:36.832Z,11.35
2017-05-07T03:47:30.882Z,11.33
2017-05-07T03:50:25.067Z,11.30
2017-05-07T03:56:13.259Z,11.27
2017-05-07T03:59:07.348Z,11.28
2017-05-07T04:02:01.356Z,11.27
2017-05-07T04:10:43.799Z,11.30
2017-05-07T04:13:37.909Z,11.28
2017-05-07T04:16:32.083Z,11.29
2017-05-07T04:19:25.950Z,11.31
2017-05-07T04:22:19.928Z,11.33
2017-05-07T04:25:13.941Z,11.31
2017-05-07T04:28:07.974Z,11.32
2017-05-07T04:33:56.162Z,11.32
2017-05-07T04:36:50.299Z,11.34
2017-05-07T04:39:44.444Z,11.37
2017-05-07T04:42:38.442Z,11.39
2017-05-07T04:45:32.570Z,11.41
2017-05-07T04:48:26.622Z,11.44
2017-05-07T04:51:20.765Z,11.45
2017-05-07T04:54:15.181Z,11.47
2017-05-07T04:57:09.277Z,11.50
2017-05-07T05:00:03.420Z,11.53
2017-05-07T05:02:57.340Z,11.57
2017-05-07T05:05:51.487Z,11.61
2017-05-07T05:08:45.545Z,11.62
2017-05-07T05:11:39.511Z,11.65
2017-05-07T05:14:33.609Z,11.70
2017-05-07T05:20:21.927Z,11.80
2017-05-07T05:23:16.068Z,11.84
2017-05-07T05:26:10.211Z,11.88
2017-05-07T05:29:04.352Z,11.90
2017-05-07T05:31:58.547Z,11.89
2017-05-07T05:34:52.668Z,11.91
2017-05-07T05:37:46.845Z,11.97
2017-05-07T05:40:40.991Z,12.01
2017-05-07T05:43:35.436Z,12.07
2017-05-07T05:46:29.482Z,12.08
2017-05-07T05:49:23.588Z,12.13
2017-05-07T05:52:17.800Z,12.18
2017-05-07T05:55:12.044Z,12.21
2017-05-07T05:58:06.244Z,12.23
2017-05-07T06:01:00.415Z,12.22
2017-05-07T06:06:48.696Z,12.21
2017-05-07T06:09:42.806Z,12.22
2017-05-07T06:12:36.947Z,12.24
2017-05-07T06:15:31.138Z,12.20
2017-05-07T06:21:19.377Z,12.18
2017-05-07T06:24:13.584Z,12.17
2017-05-07T06:27:07.881Z,12.20
2017-05-07T06:30:02.059Z,12.24
2017-05-07T06:32:56.283Z,12.27
2017-05-07T06:35:50.490Z,12.23
2017-05-07T06:41:38.875Z,12.25
2017-05-07T06:44:33.026Z,12.28
2017-05-07T06:47:27.309Z,12.36
2017-05-07T06:50:21.348Z,12.46
2017-05-07T06:53:15.539Z,12.49
2017-05-07T06:56:09.670Z,12.47
2017-05-07T06:59:03.915Z,12.52
2017-05-07T07:04:52.101Z,12.62
2017-05-07T07:07:46.429Z,12.65
2017-05-07T07:16:29.077Z,12.83
2017-05-07T07:19:23.387Z,12.90
2017-05-07T07:22:17.527Z,13.00
2017-05-07T07:25:11.775Z,13.03
2017-05-07T07:28:06.027Z,13.07
2017-05-07T07:33:54.370Z,13.26
2017-05-07T07:36:48.656Z,14.10
2017-05-07T07:39:43.148Z,15.10
2017-05-07T07:42:37.607Z,15.46
2017-05-07T07:45:32.068Z,15.90
2017-05-07T07:48:26.484Z,16.01
2017-05-07T07:51:21.029Z,15.99
2017-05-07T07:54:15.426Z,15.88
2017-05-07T07:57:09.789Z,15.92
2017-05-07T08:00:04.143Z,16.01
2017-05-07T08:05:53.026Z,16.18
2017-05-07T08:08:47.440Z,16.27
2017-05-07T08:11:41.886Z,16.35
2017-05-07T08:14:36.345Z,16.35
2017-05-07T08:17:30.992Z,16.27
2017-05-07T08:23:19.818Z,16.21
2017-05-07T08:26:14.210Z,16.18
2017-05-07T08:29:08.619Z,16.30
2017-05-07T08:32:02.905Z,16.48
2017-05-07T08:34:57.172Z,16.66
2017-05-07T08:37:51.613Z,16.89
2017-05-07T08:40:46.010Z,17.11
2017-05-07T08:43:40.522Z,17.34
2017-05-07T08:46:34.985Z,17.63
2017-05-07T08:49:29.379Z,17.95
2017-05-07T08:52:23.858Z,18.22
2017-05-07T08:55:18.348Z,18.16
2017-05-07T08:58:12.792Z,17.99
2017-05-07T09:01:07.229Z,17.98
2017-05-07T09:04:01.683Z,17.98
2017-05-07T09:06:56.089Z,17.84
2017-05-07T09:09:50.443Z,17.70
2017-05-07T09:12:44.825Z,17.40
2017-05-07T09:15:39.139Z,17.19
2017-05-07T09:18:33.509Z,16.97
2017-05-07T09:21:27.854Z,16.95
2017-05-07T09:24:22.158Z,17.02
2017-05-07T09:27:16.598Z,17.16
2017-05-07T09:30:11.023Z,17.40
2017-05-07T09:33:05.562Z,17.74
2017-05-07T09:36:00.099Z,18.32
2017-05-07T09:38:54.611Z,18.55
2017-05-07T09:41:49.190Z,18.74
2017-05-07T09:47:38.503Z,19.28
2017-05-07T09:50:33.143Z,19.80
2017-05-07T09:53:27.822Z,20.77
2017-05-07T09:56:22.653Z,22.37
2017-05-07T09:59:17.300Z,23.09
2017-05-07T10:02:12.326Z,25.81
2017-05-07T10:05:07.725Z,28.34
2017-05-07T10:08:03.116Z,30.55
2017-05-07T10:10:58.411Z,31.51
2017-05-07T10:13:53.859Z,31.63
2017-05-07T10:16:49.149Z,32.13
2017-05-07T10:19:44.667Z,31.92
2017-05-07T10:25:35.493Z,30.05
2017-05-07T10:28:30.688Z,28.90
2017-05-07T10:31:26.073Z,28.17
2017-05-07T10:34:21.180Z,27.24
2017-05-07T10:37:16.288Z,26.68
2017-05-07T10:40:11.302Z,26.15
2017-05-07T10:43:06.317Z,25.41
2017-05-07T10:46:01.471Z,25.06
2017-05-07T10:48:56.490Z,24.68
2017-05-07T10:51:51.508Z,24.62
2017-05-07T10:54:46.568Z,24.53
2017-05-07T10:57:41.649Z,24.40
2017-05-07T11:00:36.725Z,24.30
2017-05-07T11:03:31.746Z,24.17
2017-05-07T11:06:26.912Z,23.98
2017-05-07T11:09:21.980Z,23.55
2017-05-07T11:12:16.955Z,23.05
2017-05-07T11:15:11.907Z,22.85
2017-05-07T11:18:06.894Z,22.55
2017-05-07T11:21:02.025Z,22.34
2017-05-07T11:23:56.983Z,22.11
2017-05-07T11:26:51.857Z,21.92
2017-05-07T11:29:46.859Z,21.80
2017-05-07T11:32:41.830Z,21.66
2017-05-07T11:35:36.762Z,21.49
2017-05-07T11:38:31.631Z,21.33
2017-05-07T11:41:26.516Z,21.23
2017-05-07T11:44:21.392Z,21.21
2017-05-07T11:47:16.365Z,21.22
2017-05-07T11:50:11.292Z,21.18
2017-05-07T11:53:06.237Z,21.17
2017-05-07T11:56:01.310Z,21.15
2017-05-07T11:58:56.236Z,21.01
2017-05-07T12:01:51.235Z,20.91
2017-05-07T12:04:46.204Z,20.83
2017-05-07T12:07:41.208Z,20.70
2017-05-07T12:10:36.154Z,20.57
2017-05-07T12:13:31.170Z,20.49
2017-05-07T12:16:26.045Z,20.35
2017-05-07T12:19:20.893Z,20.14
2017-05-07T12:22:15.728Z,19.97
2017-05-07T12:25:10.589Z,19.76
2017-05-07T12:28:05.421Z,19.64
2017-05-07T12:31:00.138Z,19.50
2017-05-07T12:33:55.011Z,19.42
2017-05-07T12:36:49.833Z,19.29
2017-05-07T12:39:44.725Z,19.18
2017-05-07T12:42:39.546Z,19.10
2017-05-07T12:45:34.915Z,19.00
2017-05-07T12:48:29.679Z,18.92
2017-05-07T12:51:24.603Z,18.87
2017-05-07T12:54:19.822Z,18.84
2017-05-07T12:57:14.539Z,18.76
2017-05-07T13:00:09.403Z,18.75
2017-05-07T13:03:04.194Z,18.74
2017-05-07T13:05:59.107Z,18.74
2017-05-07T13:08:53.939Z,18.73
2017-05-07T13:11:48.799Z,18.70
2017-05-07T13:14:43.564Z,18.66
2017-05-07T13:17:38.355Z,18.60
2017-05-07T13:20:33.197Z,18.53
2017-05-07T13:23:27.952Z,18.49
2017-05-07T13:26:22.793Z,18.47
2017-05-07T13:29:17.897Z,18.47
2017-05-07T13:32:12.790Z,18.49
2017-05-07T13:35:07.633Z,18.49
2017-05-07T13:38:02.523Z,18.52
2017-05-07T13:40:57.375Z,18.54
2017-05-07T13:43:52.256Z,18.54
2017-05-07T13:46:47.031Z,18.52
2017-05-07T13:49:41.885Z,18.54
2017-05-07T13:52:36.796Z,18.51
2017-05-07T13:58:26.547Z,18.48
2017-05-07T14:01:21.464Z,18.45
2017-05-07T14:04:16.320Z,18.43
2017-05-07T14:07:11.120Z,18.41
2017-05-07T14:10:05.968Z,18.41
2017-05-07T14:13:00.785Z,18.41
2017-05-07T14:15:55.710Z,18.47
2017-05-07T14:18:50.568Z,18.50
2017-05-07T14:21:45.378Z,18.52
2017-05-07T14:24:40.032Z,18.55
2017-05-07T14:27:34.828Z,18.58
2017-05-07T14:30:29.592Z,18.59
2017-05-07T14:33:24.669Z,18.59
2017-05-07T14:36:19.370Z,18.63
2017-05-07T14:39:14.382Z,18.60
2017-05-07T14:42:09.165Z,18.58
2017-05-07T14:45:04.147Z,18.54
2017-05-07T14:47:58.954Z,18.52
2017-05-07T14:50:53.988Z,18.51
2017-05-07T14:53:48.752Z,18.50
2017-05-07T14:56:43.638Z,18.50
2017-05-07T14:59:38.407Z,18.51
2017-05-07T15:02:33.470Z,18.52
2017-05-07T15:05:28.302Z,18.50
2017-05-07T15:08:23.245Z,18.50
2017-05-07T15:11:18.202Z,18.50
2017-05-07T15:14:13.036Z,18.52
2017-05-07T15:17:07.925Z,18.55
2017-05-07T15:20:02.779Z,18.51
2017-05-07T15:22:57.672Z,18.51
2017-05-07T15:25:52.578Z,18.50
2017-05-07T15:28:47.422Z,18.48
2017-05-07T15:31:42.265Z,18.46
2017-05-07T15:34:37.150Z,18.46
2017-05-07T15:37:32.002Z,18.49
2017-05-07T15:40:26.930Z,18.50
2017-05-07T15:43:21.958Z,18.49
2017-05-07T15:46:16.577Z,18.45
2017-05-07T15:49:11.567Z,18.43
2017-05-07T15:52:06.561Z,18.43
2017-05-07T15:55:01.225Z,18.44
2017-05-07T15:57:56.070Z,18.43
2017-05-07T16:03:45.936Z,18.37
2017-05-07T16:06:40.743Z,18.35
2017-05-07T16:09:35.540Z,18.32
2017-05-07T16:12:30.403Z,18.29
2017-05-07T16:15:25.297Z,18.26
2017-05-07T16:18:20.181Z,18.25
2017-05-07T16:21:15.019Z,18.25
2017-05-07T16:24:09.880Z,18.27
2017-05-07T16:27:04.743Z,18.26
2017-05-07T16:29:59.651Z,18.24
2017-05-07T16:32:54.420Z,18.20
2017-05-07T16:35:49.294Z,18.18
2017-05-07T16:38:44.147Z,18.16
2017-05-07T16:41:38.934Z,18.14
2017-05-07T16:44:33.812Z,18.09
2017-05-07T16:47:28.575Z,18.06
2017-05-07T16:50:23.282Z,18.05
2017-05-07T16:53:18.130Z,18.03
2017-05-07T16:56:12.913Z,18.00
2017-05-07T16:59:07.757Z,17.98
2017-05-07T17:02:02.555Z,18.00
2017-05-07T17:04:57.384Z,17.98
2017-05-07T17:07:52.232Z,17.94
2017-05-07T17:10:47.139Z,17.89
2017-05-07T17:13:41.785Z,17.83
2017-05-07T17:16:36.607Z,17.78
2017-05-07T17:19:31.583Z,17.72
2017-05-07T17:22:26.414Z,17.65
2017-05-07T17:25:21.342Z,17.57
2017-05-07T17:28:16.126Z,17.48
2017-05-07T17:31:10.855Z,17.40
2017-05-07T17:34:05.779Z,17.31
2017-05-07T17:37:00.532Z,17.21
2017-05-07T17:39:55.162Z,17.12
2017-05-07T17:42:50.001Z,17.05
2017-05-07T17:45:44.752Z,16.96
2017-05-07T17:48:39.717Z,16.88
2017-05-07T17:51:34.425Z,16.80
2017-05-07T17:54:29.141Z,16.71
2017-05-07T17:57:23.887Z,16.62
2017-05-07T18:00:18.649Z,16.54
2017-05-07T18:03:13.418Z,16.44
2017-05-07T18:06:08.032Z,16.35
2017-05-07T18:09:02.962Z,16.27
2017-05-07T18:11:57.540Z,16.20
2017-05-07T18:14:52.268Z,16.12
2017-05-07T18:17:46.954Z,16.03
2017-05-07T18:20:41.644Z,15.94
2017-05-07T18:23:36.404Z,15.88
2017-05-07T18:26:31.034Z,15.77
2017-05-07T18:29:25.658Z,15.69
2017-05-07T18:32:20.291Z,15.59
2017-05-07T18:35:15.002Z,15.50
2017-05-07T18:38:09.727Z,15.44
2017-05-07T18:41:04.589Z,15.39
2017-05-07T18:43:59.069Z,15.34
2017-05-07T18:46:53.823Z,15.28
2017-05-07T18:49:48.536Z,15.23
2017-05-07T18:52:43.189Z,15.14
2017-05-07T18:55:37.690Z,15.05
2017-05-07T18:58:32.326Z,14.96
2017-05-07T19:01:27.038Z,14.87
2017-05-07T19:04:21.518Z,14.81
2017-05-07T19:07:16.095Z,14.73
2017-05-07T19:10:10.623Z,14.64
2017-05-07T19:13:05.158Z,14.52
2017-05-07T19:15:59.684Z,14.43
2017-05-07T19:18:54.455Z,14.35
2017-05-07T19:21:48.862Z,14.29
2017-05-07T19:24:43.391Z,14.26
2017-05-07T19:30:32.433Z,14.17
2017-05-07T19:33:26.942Z,14.11
2017-05-07T19:36:21.501Z,14.03
2017-05-07T19:39:16.008Z,13.98
2017-05-07T19:42:10.501Z,13.91
2017-05-07T19:45:04.897Z,13.84
2017-05-07T19:47:59.461Z,13.83
2017-05-07T19:50:53.850Z,13.82
2017-05-07T19:53:48.202Z,13.79
2017-05-07T19:56:42.673Z,13.76
2017-05-07T19:59:37.078Z,13.74
2017-05-07T20:02:31.470Z,13.74
2017-05-07T20:05:25.967Z,13.74
2017-05-07T20:08:20.486Z,13.70
2017-05-07T20:11:15.032Z,13.70
2017-05-07T20:14:09.514Z,13.69
2017-05-07T20:17:04.060Z,13.69
2017-05-07T20:19:58.563Z,13.65
2017-05-07T20:22:53.067Z,13.61
2017-05-07T20:25:47.410Z,13.58
2017-05-07T20:28:42.017Z,13.58
2017-05-07T20:31:36.577Z,13.60
2017-05-07T20:34:31.077Z,13.59
2017-05-07T20:37:25.642Z,13.57
2017-05-07T20:40:20.062Z,13.56
2017-05-07T20:43:14.661Z,13.53
2017-05-07T20:46:09.072Z,13.53
2017-05-07T20:49:03.698Z,13.54
2017-05-07T20:51:58.296Z,13.54
2017-05-07T20:54:52.763Z,13.52
2017-05-07T20:57:47.213Z,13.51
2017-05-07T21:00:41.661Z,13.50
2017-05-07T21:03:36.153Z,13.51
2017-05-07T21:06:30.571Z,13.51
2017-05-07T21:09:25.028Z,13.51
2017-05-07T21:12:19.516Z,13.50
2017-05-07T21:15:13.936Z,13.48
2017-05-07T21:18:08.511Z,13.44
2017-05-07T21:23:57.529Z,13.38
2017-05-07T21:26:52.062Z,13.37
2017-05-07T21:29:46.539Z,13.36
2017-05-07T21:32:40.997Z,13.33
2017-05-07T21:35:35.349Z,13.31
2017-05-07T21:38:29.828Z,13.28
2017-05-07T21:41:24.316Z,13.25
2017-05-07T21:44:18.796Z,13.22
2017-05-07T21:47:13.193Z,13.20
2017-05-07T21:50:07.667Z,13.19
2017-05-07T21:53:02.055Z,13.19
2017-05-07T21:55:56.553Z,13.17
2017-05-07T21:58:51.017Z,13.16
2017-05-07T22:01:45.560Z,13.14
2017-05-07T22:04:40.029Z,13.14
2017-05-07T22:07:34.451Z,13.13
2017-05-07T22:10:28.985Z,13.12
2017-05-07T22:13:23.386Z,13.11
2017-05-07T22:16:18.309Z,13.10
2017-05-07T22:19:12.779Z,13.09
2017-05-07T22:22:07.150Z,13.06
2017-05-07T22:25:01.647Z,13.05
2017-05-07T22:27:56.145Z,13.03
2017-05-07T22:30:50.667Z,13.02
2017-05-07T22:33:45.057Z,13.01
2017-05-07T22:36:39.470Z,13.02
2017-05-07T22:39:33.924Z,13.00
2017-05-07T22:42:28.491Z,13.00
2017-05-07T22:45:22.939Z,13.00
2017-05-07T22:48:17.483Z,12.98
2017-05-07T22:51:11.878Z,12.98
2017-05-07T22:57:01.250Z,12.95
2017-05-07T22:59:55.793Z,12.94
2017-05-07T23:02:50.293Z,12.90
2017-05-07T23:05:44.853Z,12.89
2017-05-07T23:08:39.401Z,12.88
2017-05-07T23:11:33.897Z,12.85
2017-05-07T23:14:28.363Z,12.83
2017-05-07T23:20:17.317Z,12.80
2017-05-07T23:23:11.757Z,12.79
2017-05-07T23:26:06.226Z,12.77
2017-05-07T23:31:55.245Z,12.76
2017-05-07T23:34:49.645Z,12.73
2017-05-07T23:40:38.434Z,12.72
2017-05-07T23:43:32.980Z,12.72
2017-05-07T23:46:27.435Z,12.71
2017-05-07T23:49:21.778Z,12.70
2017-05-07T23:52:16.136Z,12.68
2017-05-07T23:55:10.746Z,12.65
2017-05-07T23:58:05.079Z,12.61
